createdAt,value
2019-02-10T00:01:52.087Z,8.90
2019-02-10T00:04:21.506Z,8.90
2019-02-10T00:06:50.924Z,8.80
2019-02-10T00:09:20.563Z,8.90
2019-02-10T00:11:49.979Z,8.90
2019-02-10T00:14:19.424Z,8.80
2019-02-10T00:16:48.842Z,8.80
2019-02-10T00:19:18.249Z,8.70
2019-02-10T00:21:47.795Z,8.60
2019-02-10T00:24:17.233Z,8.60
2019-02-10T00:26:48.132Z,8.60
2019-02-10T00:29:17.548Z,8.50
2019-02-10T00:31:47.098Z,8.40
2019-02-10T00:34:16.508Z,8.40
2019-02-10T00:36:45.962Z,8.30
2019-02-10T00:39:15.385Z,8.30
2019-02-10T00:41:44.786Z,8.30
2019-02-10T00:44:14.181Z,8.20
2019-02-10T00:46:43.606Z,8.10
2019-02-10T00:49:13.086Z,8.10
2019-02-10T00:51:42.551Z,8.10
2019-02-10T00:54:12.234Z,8.10
2019-02-10T00:56:41.650Z,8.10
2019-02-10T00:59:11.139Z,8.10
2019-02-10T01:01:40.586Z,8.00
2019-02-10T01:04:10.316Z,8.00
2019-02-10T01:06:41.452Z,8.10
2019-02-10T01:09:11.004Z,8.00
2019-02-10T01:11:41.573Z,8.00
2019-02-10T01:14:10.949Z,8.00
2019-02-10T01:16:40.401Z,7.90
2019-02-10T01:19:10.827Z,7.90
2019-02-10T01:21:41.736Z,7.90
2019-02-10T01:24:11.161Z,7.90
2019-02-10T01:26:40.778Z,7.90
2019-02-10T01:29:10.210Z,7.90
2019-02-10T01:31:39.665Z,7.90
2019-02-10T01:34:09.114Z,7.90
2019-02-10T01:36:38.544Z,7.80
2019-02-10T01:39:15.360Z,7.80
2019-02-10T01:41:44.870Z,7.80
2019-02-10T01:44:14.342Z,7.70
2019-02-10T01:46:43.789Z,7.80
2019-02-10T01:49:13.234Z,7.80
2019-02-10T01:51:42.908Z,7.80
2019-02-10T01:54:12.321Z,7.80
2019-02-10T01:56:41.773Z,7.80
2019-02-10T01:59:11.182Z,7.80
2019-02-10T02:01:40.585Z,7.80
2019-02-10T02:04:10.606Z,7.90
2019-02-10T02:06:40.001Z,7.90
2019-02-10T02:09:12.433Z,7.80
2019-02-10T02:11:42.089Z,7.90
2019-02-10T02:14:11.494Z,7.90
2019-02-10T02:16:40.921Z,7.80
2019-02-10T02:19:10.370Z,7.90
2019-02-10T02:21:39.831Z,7.90
2019-02-10T02:24:09.232Z,7.90
2019-02-10T02:26:38.556Z,8.00
2019-02-10T02:29:07.905Z,8.00
2019-02-10T02:31:37.425Z,8.00
2019-02-10T02:34:06.894Z,8.10
2019-02-10T02:36:42.573Z,8.10
2019-02-10T02:39:12.204Z,8.10
2019-02-10T02:41:41.659Z,8.10
2019-02-10T02:44:11.055Z,8.20
2019-02-10T02:46:40.434Z,8.30
2019-02-10T02:49:09.900Z,8.40
2019-02-10T02:51:39.294Z,8.40
2019-02-10T02:54:08.790Z,8.50
2019-02-10T02:56:38.675Z,8.70
2019-02-10T02:59:08.107Z,8.70
2019-02-10T03:01:37.499Z,8.80
2019-02-10T03:04:06.901Z,8.80
2019-02-10T03:06:48.722Z,8.90
2019-02-10T03:09:18.214Z,8.90
2019-02-10T03:11:47.528Z,8.90
2019-02-10T03:14:16.939Z,9.00
2019-02-10T03:16:46.417Z,9.00
2019-02-10T03:19:15.933Z,9.00
2019-02-10T03:21:46.142Z,9.10
2019-02-10T03:24:15.542Z,9.20
2019-02-10T03:26:44.970Z,9.10
2019-02-10T03:29:14.389Z,9.20
2019-02-10T03:31:43.830Z,9.20
2019-02-10T03:34:13.205Z,9.30
2019-02-10T03:36:43.719Z,9.20
2019-02-10T03:39:13.120Z,9.30
2019-02-10T03:41:42.547Z,9.30
2019-02-10T03:44:12.058Z,9.30
2019-02-10T03:46:41.452Z,9.40
2019-02-10T03:49:10.824Z,9.40
2019-02-10T03:51:40.227Z,9.40
2019-02-10T03:54:09.635Z,9.40
2019-02-10T03:56:39.054Z,9.40
2019-02-10T03:59:08.445Z,9.40
2019-02-10T04:01:37.891Z,9.40
2019-02-10T04:04:07.248Z,9.40
2019-02-10T04:06:36.637Z,9.40
2019-02-10T04:09:06.701Z,9.50
2019-02-10T04:11:36.146Z,9.50
2019-02-10T04:14:05.524Z,9.50
2019-02-10T04:16:34.912Z,9.50
2019-02-10T04:19:04.367Z,9.50
2019-02-10T04:21:33.756Z,9.50
2019-02-10T04:24:03.073Z,9.50
2019-02-10T04:26:32.498Z,9.50
2019-02-10T04:29:01.895Z,9.50
2019-02-10T04:31:34.649Z,9.50
2019-02-10T04:34:04.828Z,9.60
2019-02-10T04:36:34.216Z,9.60
2019-02-10T04:39:04.600Z,9.50
2019-02-10T04:41:34.034Z,9.50
2019-02-10T04:44:03.426Z,9.60
2019-02-10T04:46:32.860Z,9.60
2019-02-10T04:49:02.316Z,9.60
2019-02-10T04:51:32.030Z,9.70
2019-02-10T04:54:01.480Z,9.60
2019-02-10T04:56:30.925Z,9.60
2019-02-10T04:59:00.315Z,9.50
2019-02-10T05:01:29.721Z,9.60
2019-02-10T05:03:59.144Z,9.60
2019-02-10T05:06:28.542Z,9.60
2019-02-10T05:08:58.023Z,9.60
2019-02-10T05:11:27.413Z,9.60
2019-02-10T05:13:56.818Z,9.60
2019-02-10T05:16:26.267Z,9.60
2019-02-10T05:18:55.698Z,9.60
2019-02-10T05:21:25.118Z,9.70
2019-02-10T05:24:02.765Z,9.70
2019-02-10T05:26:25.570Z,9.70
2019-02-10T05:28:54.986Z,9.80
2019-02-10T05:31:24.412Z,9.80
2019-02-10T05:33:53.823Z,9.80
2019-02-10T05:36:23.328Z,9.90
2019-02-10T05:38:52.785Z,9.90
2019-02-10T05:41:22.223Z,9.90
2019-02-10T05:43:51.765Z,9.90
2019-02-10T05:46:21.206Z,10.00
2019-02-10T05:48:50.606Z,10.00
2019-02-10T05:51:20.011Z,10.00
2019-02-10T05:53:49.445Z,10.00
2019-02-10T05:56:18.821Z,10.00
2019-02-10T05:58:48.226Z,10.00
2019-02-10T06:01:53.150Z,10.00
2019-02-10T06:04:22.640Z,10.00
2019-02-10T06:06:53.101Z,10.00
2019-02-10T06:09:22.511Z,10.00
2019-02-10T06:11:51.823Z,9.90
2019-02-10T06:14:21.133Z,9.80
2019-02-10T06:16:50.564Z,9.80
2019-02-10T06:19:19.946Z,9.80
2019-02-10T06:21:49.277Z,9.80
2019-02-10T06:24:18.685Z,9.80
2019-02-10T06:26:48.113Z,9.80
2019-02-10T06:29:17.447Z,9.90
2019-02-10T06:31:46.828Z,9.80
2019-02-10T06:34:16.305Z,9.80
2019-02-10T06:36:45.617Z,9.80
2019-02-10T06:39:15.069Z,9.80
2019-02-10T06:41:44.371Z,9.70
2019-02-10T06:44:13.795Z,9.70
2019-02-10T06:46:43.205Z,9.70
2019-02-10T06:49:12.577Z,9.70
2019-02-10T06:51:41.978Z,9.60
2019-02-10T06:54:11.418Z,9.60
2019-02-10T06:56:40.817Z,9.60
2019-02-10T06:59:19.646Z,9.60
2019-02-10T07:01:53.682Z,9.50
2019-02-10T07:04:25.968Z,9.40
2019-02-10T07:06:55.365Z,9.40
2019-02-10T07:09:26.975Z,9.40
2019-02-10T07:11:56.383Z,9.40
2019-02-10T07:14:31.712Z,9.40
2019-02-10T07:17:36.833Z,9.30
2019-02-10T07:20:42.592Z,9.30
2019-02-10T07:24:02.013Z,9.20
2019-02-10T07:27:15.853Z,9.20
2019-02-10T07:30:10.984Z,9.20
2019-02-10T07:32:46.754Z,9.20
2019-02-10T07:36:12.181Z,9.10
2019-02-10T07:39:02.061Z,9.10
2019-02-10T07:42:14.419Z,9.10
2019-02-10T07:45:39.725Z,9.00
2019-02-10T07:48:37.057Z,9.00
2019-02-10T07:51:29.414Z,8.90
2019-02-10T07:54:24.094Z,8.90
2019-02-10T07:57:03.214Z,8.90
2019-02-10T07:59:45.871Z,8.80
2019-02-10T08:02:53.049Z,8.80
2019-02-10T08:05:59.898Z,8.70
2019-02-10T08:09:21.326Z,8.70
2019-02-10T08:12:21.708Z,8.70
2019-02-10T08:15:05.823Z,8.60
2019-02-10T08:18:03.710Z,8.60
2019-02-10T08:20:49.347Z,8.60
2019-02-10T08:23:59.491Z,8.50
2019-02-10T08:26:51.421Z,8.50
2019-02-10T08:30:08.006Z,8.50
2019-02-10T08:33:16.399Z,8.60
2019-02-10T08:36:13.055Z,8.60
2019-02-10T08:38:55.445Z,8.50
2019-02-10T08:42:13.721Z,8.50
2019-02-10T08:44:54.355Z,8.60
2019-02-10T08:47:41.769Z,8.60
2019-02-10T08:51:16.466Z,8.50
2019-02-10T08:53:47.243Z,8.50
2019-02-10T08:56:16.718Z,8.50
2019-02-10T08:58:46.178Z,8.50
2019-02-10T09:01:15.801Z,8.50
2019-02-10T09:03:45.143Z,8.50
2019-02-10T09:06:14.642Z,8.50
2019-02-10T09:08:44.054Z,8.50
2019-02-10T09:11:13.452Z,8.40
2019-02-10T09:13:42.915Z,8.50
2019-02-10T09:16:12.362Z,8.50
2019-02-10T09:18:42.018Z,8.60
2019-02-10T09:21:11.345Z,8.50
2019-02-10T09:23:40.757Z,8.60
2019-02-10T09:26:10.282Z,8.60
2019-02-10T09:28:39.729Z,8.60
2019-02-10T09:31:09.279Z,8.60
2019-02-10T09:33:38.715Z,8.70
2019-02-10T09:36:08.211Z,8.70
2019-02-10T09:38:37.621Z,8.80
2019-02-10T09:41:07.294Z,8.80
2019-02-10T09:43:36.847Z,8.80
2019-02-10T09:46:06.226Z,8.80
2019-02-10T09:48:35.662Z,8.70
2019-02-10T09:51:05.122Z,8.70
2019-02-10T09:53:34.617Z,8.70
2019-02-10T09:56:04.023Z,8.70
2019-02-10T09:58:33.453Z,8.60
2019-02-10T10:01:02.897Z,8.60
2019-02-10T10:03:32.310Z,8.70
2019-02-10T10:06:01.791Z,8.70
2019-02-10T10:08:31.221Z,8.70
2019-02-10T10:11:00.696Z,8.80
2019-02-10T10:13:30.184Z,9.00
2019-02-10T10:15:59.666Z,9.00
2019-02-10T10:18:29.021Z,9.00
2019-02-10T10:20:58.450Z,9.10
2019-02-10T10:23:28.013Z,9.00
2019-02-10T10:25:57.851Z,9.00
2019-02-10T10:28:27.242Z,9.00
2019-02-10T10:30:56.685Z,9.00
2019-02-10T10:33:26.238Z,9.10
2019-02-10T10:35:55.664Z,9.20
2019-02-10T10:38:25.086Z,9.20
2019-02-10T10:40:54.481Z,9.30
2019-02-10T10:43:23.891Z,9.30
2019-02-10T10:45:53.381Z,9.30
2019-02-10T10:48:22.862Z,9.20
2019-02-10T10:50:52.444Z,9.10
2019-02-10T10:53:21.983Z,9.10
2019-02-10T10:55:51.527Z,9.30
2019-02-10T10:58:20.953Z,9.40
2019-02-10T11:00:50.447Z,9.40
2019-02-10T11:03:20.034Z,9.40
2019-02-10T11:05:49.594Z,9.40
2019-02-10T11:08:18.912Z,9.30
2019-02-10T11:10:48.229Z,9.20
2019-02-10T11:13:18.167Z,9.10
2019-02-10T11:15:48.219Z,9.10
2019-02-10T11:18:17.997Z,9.20
2019-02-10T11:20:48.089Z,9.20
2019-02-10T11:23:18.408Z,9.20
2019-02-10T11:25:47.820Z,9.30
2019-02-10T11:28:17.278Z,9.40
2019-02-10T11:30:46.688Z,9.50
2019-02-10T11:33:16.113Z,9.50
2019-02-10T11:35:45.628Z,9.70
2019-02-10T11:38:15.122Z,9.60
2019-02-10T11:40:44.566Z,9.60
2019-02-10T11:43:13.989Z,9.40
2019-02-10T11:45:43.445Z,9.20
2019-02-10T11:48:12.796Z,9.10
2019-02-10T11:50:42.248Z,9.00
2019-02-10T11:53:11.788Z,9.10
2019-02-10T11:55:41.236Z,9.00
2019-02-10T11:58:10.650Z,8.90
2019-02-10T12:00:40.476Z,8.90
2019-02-10T12:03:09.884Z,9.00
2019-02-10T12:05:40.162Z,9.10
2019-02-10T12:08:09.682Z,9.10
2019-02-10T12:10:39.107Z,9.20
2019-02-10T12:13:08.530Z,9.30
2019-02-10T12:15:37.993Z,9.30
2019-02-10T12:18:07.592Z,9.20
2019-02-10T12:20:37.108Z,9.10
2019-02-10T12:23:06.560Z,9.00
2019-02-10T12:25:35.948Z,9.00
2019-02-10T12:28:05.348Z,9.00
2019-02-10T12:30:34.687Z,9.20
2019-02-10T12:33:04.117Z,9.20
2019-02-10T12:35:33.685Z,9.20
2019-02-10T12:38:03.103Z,9.30
2019-02-10T12:40:33.188Z,9.30
2019-02-10T12:43:03.325Z,9.30
2019-02-10T12:45:32.775Z,9.10
2019-02-10T12:48:02.425Z,9.20
2019-02-10T12:50:31.968Z,9.20
2019-02-10T12:53:01.492Z,9.30
2019-02-10T12:55:30.958Z,9.20
2019-02-10T12:58:00.382Z,9.10
2019-02-10T13:00:29.812Z,9.10
2019-02-10T13:02:59.260Z,9.20
2019-02-10T13:05:28.711Z,9.30
2019-02-10T13:08:02.130Z,9.20
2019-02-10T13:10:31.645Z,9.00
2019-02-10T13:13:01.020Z,8.80
2019-02-10T13:15:30.426Z,8.70
2019-02-10T13:17:59.852Z,8.60
2019-02-10T13:20:29.245Z,8.60
2019-02-10T13:22:58.685Z,8.60
2019-02-10T13:25:28.199Z,8.70
2019-02-10T13:27:57.703Z,8.90
2019-02-10T13:30:27.149Z,9.00
2019-02-10T13:32:58.030Z,9.10
2019-02-10T13:35:27.532Z,9.00
2019-02-10T13:37:56.969Z,8.80
2019-02-10T13:40:26.475Z,8.50
2019-02-10T13:42:56.091Z,8.30
2019-02-10T13:45:25.492Z,8.30
2019-02-10T13:47:54.943Z,8.30
2019-02-10T13:50:24.289Z,8.20
2019-02-10T13:52:53.740Z,8.10
2019-02-10T13:55:23.317Z,8.00
2019-02-10T13:57:52.781Z,7.90
2019-02-10T14:00:22.400Z,7.80
2019-02-10T14:02:51.805Z,7.70
2019-02-10T14:05:21.413Z,7.60
2019-02-10T14:07:51.335Z,7.60
2019-02-10T14:10:25.725Z,7.60
2019-02-10T14:12:51.995Z,7.60
2019-02-10T14:15:21.421Z,7.60
2019-02-10T14:17:50.900Z,7.60
2019-02-10T14:20:20.644Z,7.50
2019-02-10T14:22:50.367Z,7.40
2019-02-10T14:25:20.111Z,7.30
2019-02-10T14:27:49.665Z,7.30
2019-02-10T14:30:19.213Z,7.20
2019-02-10T14:32:48.671Z,7.10
2019-02-10T14:35:18.166Z,7.10
2019-02-10T14:37:47.613Z,7.00
2019-02-10T14:40:18.333Z,7.00
2019-02-10T14:42:47.791Z,6.90
2019-02-10T14:45:17.289Z,6.90
2019-02-10T14:47:46.739Z,6.90
2019-02-10T14:50:16.090Z,6.90
2019-02-10T14:52:45.472Z,6.80
2019-02-10T14:55:14.905Z,6.90
2019-02-10T14:57:44.406Z,6.90
2019-02-10T15:00:14.975Z,6.90
2019-02-10T15:02:44.458Z,6.90
2019-02-10T15:05:14.219Z,6.90
2019-02-10T15:07:43.753Z,6.80
2019-02-10T15:10:13.759Z,6.70
2019-02-10T15:12:43.313Z,6.70
2019-02-10T15:15:12.915Z,6.60
2019-02-10T15:17:42.970Z,6.60
2019-02-10T15:20:12.688Z,6.60
2019-02-10T15:22:42.079Z,6.60
2019-02-10T15:25:11.683Z,6.60
2019-02-10T15:27:41.080Z,6.60
2019-02-10T15:30:11.723Z,6.60
2019-02-10T15:32:41.160Z,6.60
2019-02-10T15:35:11.010Z,6.60
2019-02-10T15:37:40.465Z,6.50
2019-02-10T15:40:10.000Z,6.50
2019-02-10T15:42:39.437Z,6.50
2019-02-10T15:45:09.607Z,6.50
2019-02-10T15:47:38.978Z,6.50
2019-02-10T15:50:09.255Z,6.60
2019-02-10T15:52:38.679Z,6.60
2019-02-10T15:55:08.943Z,6.60
2019-02-10T15:57:38.435Z,6.60
2019-02-10T16:00:13.942Z,6.60
2019-02-10T16:02:45.218Z,6.50
2019-02-10T16:05:14.684Z,6.50
2019-02-10T16:07:44.053Z,6.50
2019-02-10T16:10:14.008Z,6.40
2019-02-10T16:12:43.482Z,6.40
2019-02-10T16:15:13.390Z,6.30
2019-02-10T16:17:43.071Z,6.30
2019-02-10T16:20:13.220Z,6.20
2019-02-10T16:22:42.611Z,6.20
2019-02-10T16:25:12.052Z,6.20
2019-02-10T16:27:41.378Z,6.20
2019-02-10T16:30:11.848Z,6.20
2019-02-10T16:32:49.330Z,6.20
2019-02-10T16:35:12.602Z,6.20
2019-02-10T16:37:42.101Z,6.20
2019-02-10T16:40:13.944Z,6.20
2019-02-10T16:42:44.342Z,6.20
2019-02-10T16:45:13.966Z,6.20
2019-02-10T16:47:43.239Z,6.20
2019-02-10T16:50:13.002Z,6.20
2019-02-10T16:52:42.442Z,6.20
2019-02-10T16:55:12.734Z,6.20
2019-02-10T16:57:42.181Z,6.20
2019-02-10T17:00:13.141Z,6.20
2019-02-10T17:02:42.541Z,6.20
2019-02-10T17:05:12.981Z,6.30
2019-02-10T17:07:42.446Z,6.30
2019-02-10T17:10:12.844Z,6.30
2019-02-10T17:12:42.179Z,6.30
2019-02-10T17:15:11.968Z,6.30
2019-02-10T17:17:41.426Z,6.30
2019-02-10T17:20:11.457Z,6.30
2019-02-10T17:22:41.006Z,6.30
2019-02-10T17:25:12.373Z,6.30
2019-02-10T17:27:41.907Z,6.30
2019-02-10T17:30:12.180Z,6.10
2019-02-10T17:32:41.751Z,5.80
2019-02-10T17:35:11.321Z,5.60
2019-02-10T17:37:40.899Z,5.50
2019-02-10T17:40:20.085Z,5.40
2019-02-10T17:42:49.507Z,5.40
2019-02-10T17:45:18.950Z,5.30
2019-02-10T17:47:48.410Z,5.30
2019-02-10T17:50:17.856Z,5.30
2019-02-10T17:52:47.378Z,5.30
2019-02-10T17:55:16.845Z,5.40
2019-02-10T17:57:47.831Z,5.50
2019-02-10T18:00:17.851Z,5.50
2019-02-10T18:02:47.258Z,5.60
2019-02-10T18:05:16.699Z,5.60
2019-02-10T18:07:46.126Z,5.70
2019-02-10T18:10:15.675Z,5.70
2019-02-10T18:12:45.163Z,5.70
2019-02-10T18:15:32.313Z,5.80
2019-02-10T18:18:22.952Z,5.90
2019-02-10T18:21:10.021Z,5.90
2019-02-10T18:24:06.449Z,6.00
2019-02-10T18:26:53.291Z,6.00
2019-02-10T18:29:50.463Z,6.00
2019-02-10T18:32:56.747Z,6.10
2019-02-10T18:35:44.338Z,6.10
2019-02-10T18:38:24.071Z,6.10
2019-02-10T18:41:15.250Z,6.00
2019-02-10T18:44:06.485Z,6.10
2019-02-10T18:46:54.894Z,6.20
2019-02-10T18:49:34.936Z,6.20
2019-02-10T18:52:13.448Z,6.30
2019-02-10T18:55:08.118Z,6.30
2019-02-10T18:57:54.257Z,6.40
2019-02-10T19:00:50.375Z,6.40
2019-02-10T19:03:28.041Z,6.50
2019-02-10T19:06:19.273Z,6.50
2019-02-10T19:09:06.330Z,6.50
2019-02-10T19:11:57.733Z,6.50
2019-02-10T19:14:44.301Z,6.50
2019-02-10T19:17:42.533Z,6.50
2019-02-10T19:20:36.800Z,6.50
2019-02-10T19:23:23.812Z,6.50
2019-02-10T19:26:12.374Z,6.50
2019-02-10T19:29:00.711Z,6.50
2019-02-10T19:31:45.599Z,6.50
2019-02-10T19:34:32.624Z,6.60
2019-02-10T19:37:39.266Z,6.60
2019-02-10T19:40:26.767Z,6.60
2019-02-10T19:43:17.924Z,6.60
2019-02-10T19:46:22.551Z,6.60
2019-02-10T19:49:14.164Z,6.50
2019-02-10T19:52:14.752Z,6.60
2019-02-10T19:55:17.990Z,6.60
2019-02-10T19:58:04.959Z,6.60
2019-02-10T20:00:51.332Z,6.50
2019-02-10T20:03:37.074Z,6.50
2019-02-10T20:06:31.258Z,6.50
2019-02-10T20:09:18.450Z,6.50
2019-02-10T20:12:12.943Z,6.50
2019-02-10T20:15:16.193Z,6.40
2019-02-10T20:18:10.688Z,6.40
2019-02-10T20:21:05.270Z,6.40
2019-02-10T20:23:44.177Z,6.40
2019-02-10T20:26:44.745Z,6.30
2019-02-10T20:29:22.994Z,6.30
2019-02-10T20:32:23.312Z,6.30
2019-02-10T20:35:14.496Z,6.20
2019-02-10T20:37:58.787Z,6.20
2019-02-10T20:40:39.197Z,6.20
2019-02-10T20:43:33.531Z,6.10
2019-02-10T20:46:20.399Z,6.10
2019-02-10T20:49:26.781Z,6.10
2019-02-10T20:52:13.525Z,6.00
2019-02-10T20:54:56.649Z,6.10
2019-02-10T20:57:45.069Z,6.10
2019-02-10T21:00:26.957Z,6.00
2019-02-10T21:03:15.361Z,6.00
2019-02-10T21:06:03.855Z,5.90
2019-02-10T21:08:42.291Z,5.80
2019-02-10T21:11:29.138Z,5.80
2019-02-10T21:14:20.548Z,5.80
2019-02-10T21:17:11.782Z,5.70
2019-02-10T21:19:58.530Z,5.70
2019-02-10T21:22:52.784Z,5.70
2019-02-10T21:25:52.575Z,5.60
2019-02-10T21:28:35.149Z,5.60
2019-02-10T21:31:29.406Z,5.60
2019-02-10T21:34:23.753Z,5.60
2019-02-10T21:37:12.129Z,5.50
2019-02-10T21:40:06.418Z,5.50
2019-02-10T21:42:56.536Z,5.50
2019-02-10T21:45:49.144Z,5.50
2019-02-10T21:48:34.245Z,5.50
2019-02-10T21:51:03.605Z,5.40
2019-02-10T21:53:33.020Z,5.40
2019-02-10T21:56:02.485Z,5.40
2019-02-10T21:58:32.025Z,5.40
2019-02-10T22:01:01.361Z,5.30
2019-02-10T22:03:30.778Z,5.30
2019-02-10T22:06:00.197Z,5.40
2019-02-10T22:08:29.622Z,5.40
2019-02-10T22:10:59.084Z,5.40
2019-02-10T22:13:28.517Z,5.40
2019-02-10T22:15:58.218Z,5.40
2019-02-10T22:18:27.694Z,5.50
2019-02-10T22:20:57.118Z,5.50
2019-02-10T22:23:26.473Z,5.50
2019-02-10T22:25:55.933Z,5.40
2019-02-10T22:28:25.439Z,5.50
2019-02-10T22:30:55.142Z,5.50
2019-02-10T22:33:24.585Z,5.50
2019-02-10T22:35:53.940Z,5.50
2019-02-10T22:38:23.365Z,5.50
2019-02-10T22:40:52.868Z,5.40
2019-02-10T22:43:22.350Z,5.50
2019-02-10T22:45:51.811Z,5.50
2019-02-10T22:48:21.220Z,5.50
2019-02-10T22:50:50.546Z,5.50
2019-02-10T22:53:19.960Z,5.50
2019-02-10T22:55:49.374Z,5.50
2019-02-10T22:58:18.809Z,5.50
2019-02-10T23:01:00.653Z,5.50
2019-02-10T23:03:30.099Z,5.50
2019-02-10T23:05:59.545Z,5.50
2019-02-10T23:08:28.957Z,5.50
2019-02-10T23:10:58.578Z,5.60
2019-02-10T23:13:28.300Z,5.60
2019-02-10T23:15:57.698Z,5.60
2019-02-10T23:18:27.182Z,5.60
2019-02-10T23:20:56.583Z,5.50
2019-02-10T23:23:25.978Z,5.50
2019-02-10T23:25:55.547Z,5.50
2019-02-10T23:28:25.073Z,5.50
2019-02-10T23:30:54.485Z,5.40
2019-02-10T23:33:23.887Z,5.30
2019-02-10T23:35:53.273Z,5.30
2019-02-10T23:38:23.080Z,5.30
2019-02-10T23:40:52.533Z,5.20
2019-02-10T23:43:21.963Z,5.20
2019-02-10T23:45:51.326Z,5.20
2019-02-10T23:48:20.673Z,5.20
2019-02-10T23:50:50.167Z,5.10
2019-02-10T23:53:19.636Z,5.10
2019-02-10T23:55:49.044Z,5.20
2019-02-10T23:58:19.382Z,5.10
